sensor_id;sensor_type;location;lat;lon;timestamp;temperature;humidity
23495;DHT22;26107;50.832;2.950;2023-08-21T00:03:12;21.10;99.90
23495;DHT22;26107;50.832;2.950;2023-08-21T00:18:13;21.40;99.90
23495;DHT22;26107;50.832;2.950;2023-08-21T00:33:16;21.50;99.90
23495;DHT22;26107;50.832;2.950;2023-08-21T00:48:17;20.70;99.90
23495;DHT22;26107;50.832;2.950;2023-08-21T01:03:17;21.10;99.90
23495;DHT22;26107;50.832;2.950;2023-08-21T01:18:18;21.20;99.90
23495;DHT22;26107;50.832;2.950;2023-08-21T01:33:20;20.50;99.90
23495;DHT22;26107;50.832;2.950;2023-08-21T01:48:21;20.90;99.90
23495;DHT22;26107;50.832;2.950;2023-08-21T02:03:26;20.60;99.90
23495;DHT22;26107;50.832;2.950;2023-08-21T02:18:27;20.40;99.90
23495;DHT22;26107;50.832;2.950;2023-08-21T02:33:27;20.30;99.90
23495;DHT22;26107;50.832;2.950;2023-08-21T02:48:30;20.00;99.90
23495;DHT22;26107;50.832;2.950;2023-08-21T03:03:31;19.90;99.90
23495;DHT22;26107;50.832;2.950;2023-08-21T03:18:41;19.70;99.90
23495;DHT22;26107;50.832;2.950;2023-08-21T03:33:53;19.50;99.90
23495;DHT22;26107;50.832;2.950;2023-08-21T03:48:56;19.30;99.90
23495;DHT22;26107;50.832;2.950;2023-08-21T04:03:56;19.30;99.90
23495;DHT22;26107;50.832;2.950;2023-08-21T04:18:59;19.50;99.90
23495;DHT22;26107;50.832;2.950;2023-08-21T04:34:05;19.10;99.90
23495;DHT22;26107;50.832;2.950;2023-08-21T04:49:05;18.60;99.90
23495;DHT22;26107;50.832;2.950;2023-08-21T05:04:06;18.40;99.90
23495;DHT22;26107;50.832;2.950;2023-08-21T05:19:09;18.30;99.90
23495;DHT22;26107;50.832;2.950;2023-08-21T05:34:09;18.20;99.90
23495;DHT22;26107;50.832;2.950;2023-08-21T05:49:10;18.30;99.90
23495;DHT22;26107;50.832;2.950;2023-08-21T06:04:13;18.40;99.90
23495;DHT22;26107;50.832;2.950;2023-08-21T06:19:13;17.80;99.90
23495;DHT22;26107;50.832;2.950;2023-08-21T06:34:14;18.00;99.90
23495;DHT22;26107;50.832;2.950;2023-08-21T06:49:14;18.30;99.90
23495;DHT22;26107;50.832;2.950;2023-08-21T07:04:17;18.30;99.90
23495;DHT22;26107;50.832;2.950;2023-08-21T07:19:18;18.50;99.90
23495;DHT22;26107;50.832;2.950;2023-08-21T07:34:18;18.70;99.90
23495;DHT22;26107;50.832;2.950;2023-08-21T07:49:21;18.80;99.90
23495;DHT22;26107;50.832;2.950;2023-08-21T08:04:22;19.30;99.90
23495;DHT22;26107;50.832;2.950;2023-08-21T08:19:22;19.10;99.90
23495;DHT22;26107;50.832;2.950;2023-08-21T08:34:23;19.60;99.90
23495;DHT22;26107;50.832;2.950;2023-08-21T08:49:23;19.90;99.90
23495;DHT22;26107;50.832;2.950;2023-08-21T09:04:24;20.00;99.90
23495;DHT22;26107;50.832;2.950;2023-08-21T09:19:27;20.40;99.90
23495;DHT22;26107;50.832;2.950;2023-08-21T09:34:32;20.70;99.90
23495;DHT22;26107;50.832;2.950;2023-08-21T09:49:36;20.90;99.90
23495;DHT22;26107;50.832;2.950;2023-08-21T10:04:38;20.90;99.90
23495;DHT22;26107;50.832;2.950;2023-08-21T10:19:40;20.90;99.90
23495;DHT22;26107;50.832;2.950;2023-08-21T10:34:43;21.90;99.90
23495;DHT22;26107;50.832;2.950;2023-08-21T10:49:52;21.70;99.90
23495;DHT22;26107;50.832;2.950;2023-08-21T11:04:53;22.00;99.90
23495;DHT22;26107;50.832;2.950;2023-08-21T11:19:54;22.60;99.90
23495;DHT22;26107;50.832;2.950;2023-08-21T11:34:56;22.50;99.90
23495;DHT22;26107;50.832;2.950;2023-08-21T11:50:06;22.80;99.90
23495;DHT22;26107;50.832;2.950;2023-08-21T12:05:07;23.20;99.90
23495;DHT22;26107;50.832;2.950;2023-08-21T12:20:13;23.20;99.90
23495;DHT22;26107;50.832;2.950;2023-08-21T12:35:14;23.70;99.90
23495;DHT22;26107;50.832;2.950;2023-08-21T12:50:15;23.70;99.90
23495;DHT22;26107;50.832;2.950;2023-08-21T13:05:15;24.10;99.90
23495;DHT22;26107;50.832;2.950;2023-08-21T13:20:18;23.80;99.90
23495;DHT22;26107;50.832;2.950;2023-08-21T13:35:19;24.70;99.90
23495;DHT22;26107;50.832;2.950;2023-08-21T13:50:22;25.40;99.90
23495;DHT22;26107;50.832;2.950;2023-08-21T14:05:23;25.60;99.90
23495;DHT22;26107;50.832;2.950;2023-08-21T14:20:23;25.30;99.90
23495;DHT22;26107;50.832;2.950;2023-08-21T14:35:24;25.10;99.90
23495;DHT22;26107;50.832;2.950;2023-08-21T14:50:24;24.80;99.90
23495;DHT22;26107;50.832;2.950;2023-08-21T15:05:25;25.70;99.90
23495;DHT22;26107;50.832;2.950;2023-08-21T15:20:26;25.30;99.90
23495;DHT22;26107;50.832;2.950;2023-08-21T15:35:28;25.50;99.90
23495;DHT22;26107;50.832;2.950;2023-08-21T15:50:29;25.40;99.90
23495;DHT22;26107;50.832;2.950;2023-08-21T16:05:30;26.40;99.90
23495;DHT22;26107;50.832;2.950;2023-08-21T16:20:30;27.20;99.90
23495;DHT22;26107;50.832;2.950;2023-08-21T16:35:33;27.40;99.90
23495;DHT22;26107;50.832;2.950;2023-08-21T16:50:34;29.00;99.90
23495;DHT22;26107;50.832;2.950;2023-08-21T17:05:36;33.30;99.90
23495;DHT22;26107;50.832;2.950;2023-08-21T17:20:39;32.90;99.90
23495;DHT22;26107;50.832;2.950;2023-08-21T17:35:40;34.00;99.60
23495;DHT22;26107;50.832;2.950;2023-08-21T17:50:40;34.20;99.50
23495;DHT22;26107;50.832;2.950;2023-08-21T18:05:42;32.80;99.50
23495;DHT22;26107;50.832;2.950;2023-08-21T18:20:47;31.80;99.80
23495;DHT22;26107;50.832;2.950;2023-08-21T18:35:50;27.80;99.90
23495;DHT22;26107;50.832;2.950;2023-08-21T18:50:50;26.20;99.90
23495;DHT22;26107;50.832;2.950;2023-08-21T19:05:51;24.50;99.90
23495;DHT22;26107;50.832;2.950;2023-08-21T19:20:55;24.00;99.90
23495;DHT22;26107;50.832;2.950;2023-08-21T19:35:56;23.80;99.90
23495;DHT22;26107;50.832;2.950;2023-08-21T19:50:56;24.10;99.90
23495;DHT22;26107;50.832;2.950;2023-08-21T20:06:00;23.80;99.90
23495;DHT22;26107;50.832;2.950;2023-08-21T20:21:02;23.80;99.90
23495;DHT22;26107;50.832;2.950;2023-08-21T20:36:05;23.50;99.90
23495;DHT22;26107;50.832;2.950;2023-08-21T20:51:08;23.00;99.90
23495;DHT22;26107;50.832;2.950;2023-08-21T21:06:08;22.90;99.90
23495;DHT22;26107;50.832;2.950;2023-08-21T21:21:09;22.80;99.90
23495;DHT22;26107;50.832;2.950;2023-08-21T21:36:09;22.80;99.90
23495;DHT22;26107;50.832;2.950;2023-08-21T21:51:12;22.40;99.90
23495;DHT22;26107;50.832;2.950;2023-08-21T22:06:13;22.20;99.90
23495;DHT22;26107;50.832;2.950;2023-08-21T22:21:13;21.90;99.90
23495;DHT22;26107;50.832;2.950;2023-08-21T22:36:14;21.90;99.90
23495;DHT22;26107;50.832;2.950;2023-08-21T22:51:14;21.70;99.90
23495;DHT22;26107;50.832;2.950;2023-08-21T23:06:18;21.50;99.90
23495;DHT22;26107;50.832;2.950;2023-08-21T23:21:18;21.40;99.90
23495;DHT22;26107;50.832;2.950;2023-08-21T23:36:19;21.30;99.90
23495;DHT22;26107;50.832;2.950;2023-08-21T23:51:22;21.00;99.90
